createdAt,value
2023-01-10T00:00:14.802Z,96250.34
2023-01-10T00:02:41.599Z,96255.19
2023-01-10T00:05:08.321Z,96255.19
2023-01-10T00:07:34.997Z,96241.88
2023-01-10T00:10:01.685Z,96254.56
2023-01-10T00:12:28.439Z,96259.22
2023-01-10T00:14:55.139Z,96257.19
2023-01-10T00:17:21.842Z,96263.03
2023-01-10T00:19:48.788Z,96266.88
2023-01-10T00:22:15.461Z,96267.28
2023-01-10T00:24:42.141Z,96259.59
2023-01-10T00:27:08.789Z,96260.44
2023-01-10T00:29:35.528Z,96273.91
2023-01-10T00:32:02.175Z,96265.88
2023-01-10T00:34:28.897Z,96262.44
2023-01-10T00:36:55.596Z,96270.09
2023-01-10T00:39:22.263Z,96278.16
2023-01-10T00:41:48.951Z,96277.16
2023-01-10T00:44:15.576Z,96278.34
2023-01-10T00:46:42.239Z,96282.78
2023-01-10T00:49:08.900Z,96277.13
2023-01-10T00:51:35.567Z,96281.56
2023-01-10T00:54:02.309Z,96292.28
2023-01-10T00:56:28.966Z,96287.41
2023-01-10T00:58:55.672Z,96290.44
2023-01-10T01:01:22.384Z,96295.31
2023-01-10T01:03:49.200Z,96294.69
2023-01-10T01:06:15.866Z,96295.47
2023-01-10T01:08:42.542Z,96302.56
2023-01-10T01:11:09.234Z,96304.16
2023-01-10T01:13:35.878Z,96308.91
2023-01-10T01:16:02.920Z,96308.97
2023-01-10T01:18:29.639Z,96303.91
2023-01-10T01:20:56.850Z,96306.38
2023-01-10T01:23:23.492Z,96301.91
2023-01-10T01:25:50.163Z,96307.97
2023-01-10T01:28:16.848Z,96313.44
2023-01-10T01:30:43.539Z,96318.47
2023-01-10T01:33:10.235Z,96311.78
2023-01-10T01:35:37.001Z,96299.03
2023-01-10T01:38:03.708Z,96318.25
2023-01-10T01:40:30.415Z,96315.22
2023-01-10T01:42:57.074Z,96303.69
2023-01-10T01:45:23.719Z,96322.56
2023-01-10T01:47:50.351Z,96322.53
2023-01-10T01:50:17.015Z,96314.78
2023-01-10T01:52:43.676Z,96325.72
2023-01-10T01:55:10.479Z,96323.34
2023-01-10T01:57:37.209Z,96318.53
2023-01-10T02:00:03.867Z,96325.16
2023-01-10T02:02:30.576Z,96316.50
2023-01-10T02:04:57.255Z,96312.47
2023-01-10T02:07:23.892Z,96322.13
2023-01-10T02:09:50.587Z,96326.31
2023-01-10T02:12:17.253Z,96325.91
2023-01-10T02:14:45.835Z,96321.13
2023-01-10T02:17:12.543Z,96318.81
2023-01-10T02:19:39.167Z,96316.38
2023-01-10T02:22:05.881Z,96324.56
2023-01-10T02:24:32.530Z,96313.22
2023-01-10T02:26:59.384Z,96326.72
2023-01-10T02:29:26.012Z,96315.84
2023-01-10T02:31:52.712Z,96322.91
2023-01-10T02:34:19.647Z,96335.59
2023-01-10T02:36:46.301Z,96323.00
2023-01-10T02:39:12.923Z,96319.19
2023-01-10T02:41:39.573Z,96315.78
2023-01-10T02:44:06.249Z,96311.84
2023-01-10T02:46:33.052Z,96315.16
2023-01-10T02:48:59.750Z,96314.84
2023-01-10T02:51:26.446Z,96322.44
2023-01-10T02:53:53.067Z,96312.25
2023-01-10T02:56:19.737Z,96322.13
2023-01-10T02:58:46.491Z,96314.22
2023-01-10T03:01:13.386Z,96317.19
2023-01-10T03:03:40.149Z,96333.34
2023-01-10T03:06:06.769Z,96322.44
2023-01-10T03:08:33.652Z,96325.06
2023-01-10T03:11:00.279Z,96326.09
2023-01-10T03:13:26.946Z,96340.47
2023-01-10T03:15:53.647Z,96333.38
2023-01-10T03:18:20.323Z,96320.22
2023-01-10T03:20:46.973Z,96336.84
2023-01-10T03:23:13.649Z,96339.56
2023-01-10T03:25:40.276Z,96323.88
2023-01-10T03:28:06.979Z,96346.06
2023-01-10T03:30:33.911Z,96346.44
2023-01-10T03:33:00.580Z,96343.91
2023-01-10T03:35:27.243Z,96359.56
2023-01-10T03:37:53.880Z,96371.84
2023-01-10T03:40:20.502Z,96365.66
2023-01-10T03:42:47.221Z,96368.44
2023-01-10T03:45:13.940Z,96375.97
2023-01-10T03:47:40.755Z,96377.72
2023-01-10T03:50:07.599Z,96397.63
2023-01-10T03:52:34.271Z,96395.03
2023-01-10T03:55:00.963Z,96391.13
2023-01-10T03:57:27.663Z,96400.63
2023-01-10T03:59:54.436Z,96404.09
2023-01-10T04:02:21.094Z,96402.28
2023-01-10T04:04:47.707Z,96412.06
2023-01-10T04:07:14.417Z,96412.56
2023-01-10T04:09:41.260Z,96428.03
2023-01-10T04:12:07.919Z,96422.88
2023-01-10T04:14:34.815Z,96425.47
2023-01-10T04:17:01.502Z,96426.25
2023-01-10T04:19:28.140Z,96442.78
2023-01-10T04:21:54.805Z,96429.59
2023-01-10T04:24:21.519Z,96436.75
2023-01-10T04:26:48.198Z,96464.56
2023-01-10T04:29:14.927Z,96463.94
2023-01-10T04:31:41.645Z,96449.44
2023-01-10T04:34:08.374Z,96459.06
2023-01-10T04:36:35.057Z,96459.88
2023-01-10T04:39:01.788Z,96459.72
2023-01-10T04:41:28.751Z,96462.88
2023-01-10T04:43:55.425Z,96457.44
2023-01-10T04:46:22.128Z,96459.31
2023-01-10T04:48:49.480Z,96467.25
2023-01-10T04:51:16.443Z,96469.22
2023-01-10T04:53:43.105Z,96477.03
2023-01-10T04:56:10.052Z,96479.34
2023-01-10T04:58:36.659Z,96486.88
2023-01-10T05:01:03.684Z,96488.63
2023-01-10T05:03:30.372Z,96501.03
2023-01-10T05:05:57.054Z,96496.59
2023-01-10T05:08:23.757Z,96498.84
2023-01-10T05:10:50.457Z,96490.09
2023-01-10T05:13:17.232Z,96512.84
2023-01-10T05:15:43.868Z,96520.66
2023-01-10T05:18:10.667Z,96522.22
2023-01-10T05:20:37.298Z,96522.59
2023-01-10T05:23:03.963Z,96517.09
2023-01-10T05:25:30.805Z,96528.19
2023-01-10T05:27:57.473Z,96535.81
2023-01-10T05:30:24.302Z,96542.91
2023-01-10T05:32:50.948Z,96541.47
2023-01-10T05:35:17.643Z,96556.91
2023-01-10T05:37:44.500Z,96561.34
2023-01-10T05:40:11.188Z,96561.97
2023-01-10T05:42:37.847Z,96566.59
2023-01-10T05:45:04.456Z,96560.78
2023-01-10T05:47:31.112Z,96574.94
2023-01-10T05:49:57.820Z,96569.06
2023-01-10T05:52:24.453Z,96572.72
2023-01-10T05:54:51.106Z,96590.84
2023-01-10T05:57:17.797Z,96578.75
2023-01-10T05:59:44.446Z,96591.75
2023-01-10T06:02:11.201Z,96591.81
2023-01-10T06:04:37.905Z,96597.72
2023-01-10T06:07:04.561Z,96590.25
2023-01-10T06:09:31.240Z,96603.03
2023-01-10T06:11:58.021Z,96595.53
2023-01-10T06:14:24.637Z,96604.16
2023-01-10T06:16:51.543Z,96621.31
2023-01-10T06:19:18.218Z,96604.94
2023-01-10T06:21:44.899Z,96625.03
2023-01-10T06:24:11.509Z,96626.84
2023-01-10T06:26:38.136Z,96645.56
2023-01-10T06:29:04.834Z,96654.44
2023-01-10T06:31:31.765Z,96650.03
2023-01-10T06:33:58.442Z,96658.31
2023-01-10T06:36:25.081Z,96667.34
2023-01-10T06:38:51.709Z,96679.03
2023-01-10T06:41:18.610Z,96672.53
2023-01-10T06:43:45.265Z,96681.59
2023-01-10T06:46:11.936Z,96701.63
2023-01-10T06:48:38.612Z,96698.38
2023-01-10T06:51:05.272Z,96712.34
2023-01-10T06:53:32.114Z,96719.22
2023-01-10T06:55:58.974Z,96708.53
2023-01-10T06:58:25.611Z,96724.50
2023-01-10T07:00:52.364Z,96739.84
2023-01-10T07:03:19.115Z,96743.28
2023-01-10T07:05:45.782Z,96750.56
2023-01-10T07:08:12.613Z,96759.66
2023-01-10T07:10:39.320Z,96771.59
2023-01-10T07:13:05.965Z,96766.91
2023-01-10T07:15:32.631Z,96783.34
2023-01-10T07:17:59.444Z,96790.22
2023-01-10T07:20:26.071Z,96803.38
2023-01-10T07:22:52.713Z,96812.66
2023-01-10T07:25:19.353Z,96799.06
2023-01-10T07:27:46.001Z,96812.28
2023-01-10T07:30:12.647Z,96827.63
2023-01-10T07:32:39.312Z,96814.69
2023-01-10T07:35:05.985Z,96822.19
2023-01-10T07:37:32.663Z,96826.84
2023-01-10T07:39:59.395Z,96839.34
2023-01-10T07:42:26.062Z,96832.72
2023-01-10T07:44:52.732Z,96839.38
2023-01-10T07:47:19.406Z,96844.00
2023-01-10T07:49:46.081Z,96842.78
2023-01-10T07:52:12.826Z,96859.53
2023-01-10T07:54:39.443Z,96852.59
2023-01-10T07:57:06.159Z,96860.50
2023-01-10T07:59:32.868Z,96858.38
2023-01-10T08:01:59.524Z,96869.09
2023-01-10T08:04:26.197Z,96877.09
2023-01-10T08:06:52.864Z,96885.66
2023-01-10T08:09:19.478Z,96883.81
2023-01-10T08:11:46.121Z,96881.84
2023-01-10T08:14:12.881Z,96892.97
2023-01-10T08:16:39.620Z,96902.94
2023-01-10T08:19:06.317Z,96917.63
2023-01-10T08:21:32.949Z,96915.19
2023-01-10T08:23:59.633Z,96923.88
2023-01-10T08:26:26.341Z,96935.00
2023-01-10T08:28:53.073Z,96933.66
2023-01-10T08:31:19.817Z,96935.91
2023-01-10T08:33:46.571Z,96944.41
2023-01-10T08:36:13.284Z,96955.97
2023-01-10T08:38:39.969Z,96964.47
2023-01-10T08:41:06.617Z,96971.97
2023-01-10T08:43:33.307Z,96981.44
2023-01-10T08:45:59.984Z,96981.66
2023-01-10T08:48:26.611Z,96986.53
2023-01-10T08:50:53.246Z,96983.66
2023-01-10T08:53:19.923Z,96986.50
2023-01-10T08:55:46.572Z,96993.38
2023-01-10T08:58:13.337Z,97001.91
2023-01-10T09:00:40.038Z,97004.97
2023-01-10T09:03:06.819Z,97009.81
2023-01-10T09:05:33.564Z,97010.84
2023-01-10T09:08:00.394Z,97016.25
2023-01-10T09:10:27.163Z,97018.50
2023-01-10T09:12:53.960Z,97027.63
2023-01-10T09:15:20.615Z,97034.72
2023-01-10T09:17:47.276Z,97040.34
2023-01-10T09:20:13.980Z,97044.09
2023-01-10T09:22:40.682Z,97038.53
2023-01-10T09:25:07.346Z,97063.69
2023-01-10T09:27:34.061Z,97052.38
2023-01-10T09:30:00.746Z,97053.31
2023-01-10T09:32:27.415Z,97066.94
2023-01-10T09:34:54.027Z,97062.91
2023-01-10T09:37:20.687Z,97076.66
2023-01-10T09:39:47.350Z,97081.13
2023-01-10T09:42:14.015Z,97083.19
2023-01-10T09:44:40.790Z,97082.31
2023-01-10T09:47:21.225Z,97089.41
2023-01-10T09:49:48.970Z,97093.91
2023-01-10T09:52:15.609Z,97099.22
2023-01-10T09:54:42.317Z,97101.16
2023-01-10T09:57:08.968Z,97105.56
2023-01-10T09:59:35.649Z,97118.66
2023-01-10T10:02:02.301Z,97118.69
2023-01-10T10:04:29.020Z,97127.00
2023-01-10T10:06:55.745Z,97129.41
2023-01-10T10:09:22.468Z,97149.47
2023-01-10T10:11:49.169Z,97145.03
2023-01-10T10:14:15.834Z,97143.59
2023-01-10T10:16:42.637Z,97147.06
2023-01-10T10:19:09.345Z,97134.22
2023-01-10T10:21:36.028Z,97141.34
2023-01-10T10:24:02.726Z,97135.91
2023-01-10T10:26:29.447Z,97150.69
2023-01-10T10:28:56.157Z,97152.28
2023-01-10T10:31:22.835Z,97143.00
2023-01-10T10:33:49.542Z,97139.13
2023-01-10T10:36:16.464Z,97164.06
2023-01-10T10:38:43.142Z,97158.59
2023-01-10T10:41:09.802Z,97145.00
2023-01-10T10:43:36.495Z,97157.53
2023-01-10T10:46:03.203Z,97171.19
2023-01-10T10:48:29.897Z,97154.72
2023-01-10T10:50:56.550Z,97160.78
2023-01-10T10:53:23.281Z,97176.84
2023-01-10T10:55:49.921Z,97160.31
2023-01-10T10:58:16.733Z,97164.66
2023-01-10T11:00:43.368Z,97176.97
2023-01-10T11:03:10.194Z,97167.78
2023-01-10T11:05:36.929Z,97172.41
2023-01-10T11:08:03.548Z,97157.47
2023-01-10T11:10:30.200Z,97174.56
2023-01-10T11:12:56.901Z,97186.16
2023-01-10T11:15:23.617Z,97192.28
2023-01-10T11:17:50.317Z,97175.00
2023-01-10T11:20:17.004Z,97187.25
2023-01-10T11:22:43.757Z,97183.66
2023-01-10T11:25:10.371Z,97180.03
2023-01-10T11:27:37.047Z,97194.84
2023-01-10T11:30:03.674Z,97205.00
2023-01-10T11:32:30.302Z,97206.25
2023-01-10T11:34:56.988Z,97206.00
2023-01-10T11:37:23.680Z,97204.03
2023-01-10T11:39:50.388Z,97209.06
2023-01-10T11:42:17.083Z,97215.41
2023-01-10T11:44:43.756Z,97212.72
2023-01-10T11:47:10.405Z,97218.44
2023-01-10T11:49:37.059Z,97224.47
2023-01-10T11:52:03.823Z,97220.81
2023-01-10T11:54:30.464Z,97223.00
2023-01-10T11:56:57.179Z,97219.16
2023-01-10T11:59:23.831Z,97214.19
2023-01-10T12:01:50.520Z,97219.88
2023-01-10T12:04:17.222Z,97218.34
2023-01-10T12:06:43.896Z,97222.69
2023-01-10T12:09:10.539Z,97222.94
2023-01-10T12:11:37.248Z,97221.09
2023-01-10T12:14:03.913Z,97225.88
2023-01-10T12:16:30.654Z,97227.09
2023-01-10T12:18:57.872Z,97234.28
2023-01-10T12:21:24.643Z,97236.50
2023-01-10T12:23:51.336Z,97234.66
2023-01-10T12:26:17.945Z,97243.19
2023-01-10T12:28:44.605Z,97252.13
2023-01-10T12:31:11.380Z,97246.25
2023-01-10T12:33:38.946Z,97245.88
2023-01-10T12:36:05.615Z,97254.34
2023-01-10T12:38:32.469Z,97274.03
2023-01-10T12:40:59.102Z,97257.59
2023-01-10T12:43:25.764Z,97273.22
2023-01-10T12:45:52.538Z,97268.94
2023-01-10T12:48:19.185Z,97249.69
2023-01-10T12:50:45.864Z,97272.63
2023-01-10T12:53:12.529Z,97262.47
2023-01-10T12:55:39.231Z,97268.94
2023-01-10T12:58:06.009Z,97272.09
2023-01-10T13:00:37.624Z,97275.84
2023-01-10T13:03:07.439Z,97281.53
2023-01-10T13:05:34.116Z,97276.22
2023-01-10T13:08:00.802Z,97278.00
2023-01-10T13:10:27.479Z,97283.16
2023-01-10T13:12:54.147Z,97283.22
2023-01-10T13:15:20.765Z,97280.66
2023-01-10T13:17:47.437Z,97279.03
2023-01-10T13:20:14.108Z,97287.38
2023-01-10T13:22:40.845Z,97282.19
2023-01-10T13:25:07.571Z,97290.94
2023-01-10T13:27:34.256Z,97291.56
2023-01-10T13:30:00.989Z,97303.06
2023-01-10T13:32:27.673Z,97300.94
2023-01-10T13:34:54.354Z,97308.34
2023-01-10T13:37:20.995Z,97316.34
2023-01-10T13:39:47.667Z,97324.28
2023-01-10T13:42:14.426Z,97313.22
2023-01-10T13:44:41.103Z,97334.69
2023-01-10T13:47:07.801Z,97333.59
2023-01-10T13:49:34.425Z,97330.78
2023-01-10T13:52:01.294Z,97343.66
2023-01-10T13:54:27.985Z,97341.72
2023-01-10T13:56:54.682Z,97341.56
2023-01-10T13:59:21.347Z,97349.63
2023-01-10T14:01:48.073Z,97357.44
2023-01-10T14:04:14.842Z,97361.13
2023-01-10T14:06:41.563Z,97366.44
2023-01-10T14:09:08.494Z,97365.19
2023-01-10T14:11:35.271Z,97363.69
2023-01-10T14:14:01.899Z,97369.69
2023-01-10T14:16:28.551Z,97378.47
2023-01-10T14:18:55.187Z,97376.53
2023-01-10T14:21:21.893Z,97373.97
2023-01-10T14:23:48.598Z,97383.34
2023-01-10T14:26:15.270Z,97382.38
2023-01-10T14:28:41.967Z,97377.53
2023-01-10T14:31:08.668Z,97386.50
2023-01-10T14:33:35.437Z,97412.06
2023-01-10T14:36:02.061Z,97409.50
2023-01-10T14:38:28.722Z,97407.75
2023-01-10T14:40:55.411Z,97418.31
2023-01-10T14:43:22.135Z,97421.38
2023-01-10T14:45:48.803Z,97432.34
2023-01-10T14:48:15.589Z,97420.69
2023-01-10T14:50:42.248Z,97419.94
2023-01-10T14:53:08.880Z,97428.22
2023-01-10T14:55:35.560Z,97430.72
2023-01-10T14:58:02.336Z,97424.22
2023-01-10T15:00:29.182Z,97415.63
2023-01-10T15:02:55.867Z,97425.03
2023-01-10T15:05:22.776Z,97429.34
2023-01-10T15:07:49.444Z,97442.22
2023-01-10T15:10:16.127Z,97432.06
2023-01-10T15:12:42.836Z,97441.69
2023-01-10T15:15:09.609Z,97447.19
2023-01-10T15:17:36.364Z,97455.72
2023-01-10T15:20:03.004Z,97456.44
2023-01-10T15:22:29.647Z,97472.34
2023-01-10T15:24:56.331Z,97484.03
2023-01-10T15:27:22.972Z,97482.66
2023-01-10T15:29:49.600Z,97486.34
2023-01-10T15:32:16.249Z,97498.16
2023-01-10T15:34:42.870Z,97507.97
2023-01-10T15:37:09.518Z,97509.91
2023-01-10T15:39:36.157Z,97516.75
2023-01-10T15:42:02.828Z,97515.28
2023-01-10T15:44:29.447Z,97524.56
2023-01-10T15:46:56.165Z,97522.38
2023-01-10T15:49:22.886Z,97538.06
2023-01-10T15:51:49.581Z,97536.03
2023-01-10T15:54:16.230Z,97536.13
2023-01-10T15:56:43.041Z,97541.88
2023-01-10T15:59:09.725Z,97549.66
2023-01-10T16:01:36.497Z,97547.94
2023-01-10T16:04:03.231Z,97549.59
2023-01-10T16:06:29.918Z,97562.41
2023-01-10T16:08:56.604Z,97562.94
2023-01-10T16:11:23.293Z,97568.09
2023-01-10T16:13:50.037Z,97564.38
2023-01-10T16:16:16.780Z,97580.41
2023-01-10T16:18:43.550Z,97575.13
2023-01-10T16:21:10.223Z,97584.03
2023-01-10T16:23:36.863Z,97581.91
2023-01-10T16:26:03.542Z,97586.59
2023-01-10T16:28:30.185Z,97590.06
2023-01-10T16:30:57.553Z,97592.06
2023-01-10T16:33:24.167Z,97590.88
2023-01-10T16:35:50.798Z,97589.44
2023-01-10T16:38:17.451Z,97597.50
2023-01-10T16:40:44.144Z,97608.53
2023-01-10T16:43:10.798Z,97597.84
2023-01-10T16:45:37.513Z,97613.00
2023-01-10T16:48:04.393Z,97610.56
2023-01-10T16:50:31.085Z,97613.84
2023-01-10T16:52:57.947Z,97610.78
2023-01-10T16:55:24.563Z,97614.53
2023-01-10T16:57:51.410Z,97615.63
2023-01-10T17:00:18.009Z,97617.66
2023-01-10T17:02:44.706Z,97609.97
2023-01-10T17:05:11.324Z,97618.19
2023-01-10T17:07:37.997Z,97625.38
2023-01-10T17:10:04.700Z,97621.81
2023-01-10T17:12:31.316Z,97623.22
2023-01-10T17:14:58.155Z,97622.56
2023-01-10T17:17:24.840Z,97621.25
2023-01-10T17:19:51.512Z,97637.16
2023-01-10T17:22:18.183Z,97638.38
2023-01-10T17:24:44.868Z,97636.03
2023-01-10T17:27:11.536Z,97630.28
2023-01-10T17:29:38.155Z,97641.25
2023-01-10T17:32:04.903Z,97650.94
2023-01-10T17:34:31.717Z,97651.81
2023-01-10T17:36:58.398Z,97663.41
2023-01-10T17:39:25.010Z,97671.81
2023-01-10T17:41:51.756Z,97658.38
2023-01-10T17:44:18.423Z,97656.78
2023-01-10T17:46:45.085Z,97653.03
2023-01-10T17:49:13.337Z,97648.88
2023-01-10T17:51:40.192Z,97658.09
2023-01-10T17:54:06.877Z,97654.56
2023-01-10T17:56:33.701Z,97659.53
2023-01-10T17:59:00.380Z,97660.00
2023-01-10T18:01:27.086Z,97670.03
2023-01-10T18:03:54.078Z,97665.94
2023-01-10T18:06:23.998Z,97666.88
2023-01-10T18:08:51.211Z,97668.91
2023-01-10T18:11:17.880Z,97685.06
2023-01-10T18:13:44.640Z,97675.97
2023-01-10T18:16:11.333Z,97684.94
2023-01-10T18:18:38.160Z,97675.38
2023-01-10T18:21:04.796Z,97689.25
2023-01-10T18:23:31.718Z,97680.38
2023-01-10T18:25:58.364Z,97687.84
2023-01-10T18:28:39.649Z,97689.72
2023-01-10T18:31:07.055Z,97702.06
2023-01-10T18:33:33.807Z,97712.91
2023-01-10T18:36:00.510Z,97706.16
2023-01-10T18:38:27.194Z,97705.03
2023-01-10T18:40:54.034Z,97713.91
2023-01-10T18:43:20.709Z,97705.44
2023-01-10T18:45:47.476Z,97714.03
2023-01-10T18:48:14.159Z,97714.56
2023-01-10T18:50:40.878Z,97715.06
2023-01-10T18:53:07.556Z,97713.09
2023-01-10T18:55:34.215Z,97718.81
2023-01-10T18:58:00.907Z,97726.00
2023-01-10T19:00:27.666Z,97722.81
2023-01-10T19:02:54.396Z,97731.84
2023-01-10T19:05:21.241Z,97724.38
2023-01-10T19:07:48.014Z,97732.19
2023-01-10T19:10:14.748Z,97728.97
2023-01-10T19:12:41.455Z,97741.75
2023-01-10T19:15:08.240Z,97743.09
2023-01-10T19:17:35.090Z,97746.16
2023-01-10T19:20:01.984Z,97748.94
2023-01-10T19:22:28.621Z,97738.78
2023-01-10T19:24:56.369Z,97742.75
2023-01-10T19:27:23.127Z,97737.84
2023-01-10T19:29:49.898Z,97745.84
2023-01-10T19:32:16.635Z,97728.69
2023-01-10T19:34:45.509Z,97736.22
2023-01-10T19:37:13.061Z,97753.41
2023-01-10T19:39:40.001Z,97746.84
2023-01-10T19:42:06.711Z,97746.69
2023-01-10T19:44:33.416Z,97764.38
2023-01-10T19:47:00.582Z,97760.78
2023-01-10T19:49:27.283Z,97766.50
2023-01-10T19:51:53.969Z,97764.53
2023-01-10T19:54:20.645Z,97763.88
2023-01-10T19:56:47.317Z,97756.16
2023-01-10T19:59:14.000Z,97753.38
2023-01-10T20:01:41.044Z,97765.31
2023-01-10T20:04:07.706Z,97764.97
2023-01-10T20:06:34.401Z,97771.16
2023-01-10T20:09:01.105Z,97767.22
2023-01-10T20:11:27.973Z,97771.25
2023-01-10T20:13:54.650Z,97768.25
2023-01-10T20:16:21.429Z,97775.16
2023-01-10T20:18:48.186Z,97773.13
2023-01-10T20:21:14.916Z,97772.31
2023-01-10T20:23:41.660Z,97773.59
2023-01-10T20:26:08.499Z,97762.88
2023-01-10T20:28:35.225Z,97767.78
2023-01-10T20:31:01.935Z,97774.94
2023-01-10T20:33:28.635Z,97781.91
2023-01-10T20:35:55.297Z,97785.94
2023-01-10T20:38:21.958Z,97786.19
2023-01-10T20:40:48.677Z,97777.34
2023-01-10T20:43:15.546Z,97789.47
2023-01-10T20:45:42.297Z,97792.13
2023-01-10T20:48:09.002Z,97788.81
2023-01-10T20:50:35.656Z,97787.50
2023-01-10T20:53:02.298Z,97780.03
2023-01-10T20:55:28.941Z,97789.06
2023-01-10T20:57:55.640Z,97781.91
2023-01-10T21:00:22.314Z,97791.75
2023-01-10T21:02:49.058Z,97792.03
2023-01-10T21:05:15.714Z,97797.78
2023-01-10T21:07:42.369Z,97808.59
2023-01-10T21:10:08.990Z,97794.47
2023-01-10T21:12:35.788Z,97796.06
2023-01-10T21:15:02.411Z,97797.75
2023-01-10T21:17:29.074Z,97797.88
2023-01-10T21:19:55.747Z,97792.41
2023-01-10T21:22:22.496Z,97794.09
2023-01-10T21:24:49.249Z,97793.81
2023-01-10T21:27:15.863Z,97787.34
2023-01-10T21:29:42.506Z,97788.72
2023-01-10T21:32:09.165Z,97791.84
2023-01-10T21:34:35.851Z,97789.09
2023-01-10T21:37:02.532Z,97796.34
2023-01-10T21:39:29.176Z,97791.91
2023-01-10T21:41:55.851Z,97789.47
2023-01-10T21:44:22.569Z,97785.41
2023-01-10T21:46:49.248Z,97794.31
2023-01-10T21:49:15.968Z,97798.13
2023-01-10T21:51:42.844Z,97795.41
2023-01-10T21:54:09.540Z,97805.44
2023-01-10T21:56:36.235Z,97800.47
2023-01-10T21:59:03.162Z,97802.53
2023-01-10T22:01:29.888Z,97801.84
2023-01-10T22:03:56.642Z,97804.56
2023-01-10T22:06:23.468Z,97817.09
2023-01-10T22:08:50.171Z,97819.81
2023-01-10T22:11:16.781Z,97823.94
2023-01-10T22:13:43.418Z,97832.28
2023-01-10T22:16:10.200Z,97819.94
2023-01-10T22:18:36.887Z,97818.22
2023-01-10T22:21:03.590Z,97812.13
2023-01-10T22:23:30.304Z,97825.31
2023-01-10T22:25:56.935Z,97821.63
2023-01-10T22:28:23.582Z,97814.88
2023-01-10T22:30:50.505Z,97825.31
2023-01-10T22:33:17.125Z,97829.53
2023-01-10T22:35:43.768Z,97829.13
2023-01-10T22:38:10.447Z,97833.75
2023-01-10T22:40:37.165Z,97824.59
2023-01-10T22:43:03.824Z,97830.22
2023-01-10T22:45:30.531Z,97823.63
2023-01-10T22:47:57.255Z,97818.94
2023-01-10T22:50:23.932Z,97819.50
2023-01-10T22:52:50.540Z,97820.06
2023-01-10T22:55:17.222Z,97824.16
2023-01-10T22:57:47.253Z,97818.69
2023-01-10T23:00:14.107Z,97821.44
2023-01-10T23:02:40.711Z,97828.22
2023-01-10T23:05:07.324Z,97826.47
2023-01-10T23:07:33.904Z,97831.22
2023-01-10T23:10:00.497Z,97830.19
2023-01-10T23:12:27.055Z,97833.59
2023-01-10T23:14:53.648Z,97832.75
2023-01-10T23:17:20.248Z,97828.47
2023-01-10T23:19:46.875Z,97830.72
2023-01-10T23:22:13.459Z,97829.25
2023-01-10T23:24:40.284Z,97835.00
2023-01-10T23:27:06.906Z,97839.50
2023-01-10T23:29:33.553Z,97845.75
2023-01-10T23:32:00.208Z,97841.78
2023-01-10T23:34:26.807Z,97845.41
2023-01-10T23:36:53.408Z,97838.81
2023-01-10T23:39:19.976Z,97838.84
2023-01-10T23:41:46.551Z,97848.06
2023-01-10T23:44:13.205Z,97846.78
2023-01-10T23:46:39.878Z,97853.97
2023-01-10T23:49:06.540Z,97841.28
2023-01-10T23:51:33.140Z,97841.56
2023-01-10T23:53:59.913Z,97840.59
2023-01-10T23:56:26.533Z,97832.88
2023-01-10T23:58:53.167Z,97821.56
